createdAt,value
2019-02-15T00:00:42.646Z,3.53
2019-02-15T00:01:42.704Z,3.40
2019-02-15T00:02:42.652Z,3.47
2019-02-15T00:03:42.742Z,3.44
2019-02-15T00:04:42.622Z,3.45
2019-02-15T00:05:42.610Z,3.40
2019-02-15T00:06:42.625Z,3.37
2019-02-15T00:07:42.657Z,3.31
2019-02-15T00:08:42.638Z,3.31
2019-02-15T00:09:42.571Z,3.29
2019-02-15T00:10:42.634Z,3.31
2019-02-15T00:11:42.616Z,3.34
2019-02-15T00:12:51.011Z,3.29
2019-02-15T00:13:42.669Z,3.26
2019-02-15T00:14:42.651Z,3.42
2019-02-15T00:15:42.674Z,3.37
2019-02-15T00:16:42.664Z,3.40
2019-02-15T00:17:42.506Z,3.36
2019-02-15T00:18:42.495Z,3.29
2019-02-15T00:19:45.732Z,3.31
2019-02-15T00:20:42.448Z,3.25
2019-02-15T00:21:42.419Z,3.34
2019-02-15T00:22:42.438Z,3.31
2019-02-15T00:23:42.418Z,3.29
2019-02-15T00:24:42.406Z,3.23
2019-02-15T00:25:42.384Z,3.32
2019-02-15T00:26:42.669Z,3.29
2019-02-15T00:27:42.410Z,3.26
2019-02-15T00:28:42.344Z,3.29
2019-02-15T00:29:42.347Z,3.25
2019-02-15T00:30:42.329Z,3.26
2019-02-15T00:31:42.374Z,3.25
2019-02-15T00:32:42.387Z,3.23
2019-02-15T00:33:42.310Z,3.32
2019-02-15T00:34:42.308Z,3.21
2019-02-15T00:35:42.255Z,3.26
2019-02-15T00:36:42.315Z,3.22
2019-02-15T00:37:42.279Z,3.18
2019-02-15T00:38:43.234Z,3.11
2019-02-15T00:39:42.221Z,3.10
2019-02-15T00:40:42.227Z,3.03
2019-02-15T00:41:42.222Z,3.01
2019-02-15T00:42:42.213Z,2.98
2019-02-15T00:43:42.168Z,2.97
2019-02-15T00:44:43.190Z,2.92
2019-02-15T00:45:42.171Z,2.92
2019-02-15T00:46:42.166Z,2.93
2019-02-15T00:47:42.178Z,2.89
2019-02-15T00:48:42.182Z,2.82
2019-02-15T00:49:42.099Z,2.80
2019-02-15T00:50:42.126Z,2.79
2019-02-15T00:51:42.117Z,2.74
2019-02-15T00:52:43.130Z,2.71
2019-02-15T00:53:50.325Z,2.67
2019-02-15T00:54:51.135Z,2.69
2019-02-15T00:55:49.338Z,2.68
2019-02-15T00:56:51.035Z,2.68
2019-02-15T00:57:50.917Z,2.74
2019-02-15T00:58:50.852Z,2.71
2019-02-15T00:59:49.206Z,2.75
2019-02-15T01:00:49.784Z,2.72
2019-02-15T01:01:50.785Z,2.74
2019-02-15T01:02:50.413Z,2.65
2019-02-15T01:03:51.088Z,2.74
2019-02-15T01:04:50.349Z,2.67
2019-02-15T01:05:49.070Z,2.74
2019-02-15T01:06:50.291Z,2.75
2019-02-15T01:07:42.103Z,2.75
2019-02-15T01:08:51.690Z,2.67
2019-02-15T01:09:50.184Z,2.64
2019-02-15T01:10:49.607Z,2.64
2019-02-15T01:11:50.642Z,2.62
2019-02-15T01:12:42.043Z,2.62
2019-02-15T01:13:41.903Z,2.64
2019-02-15T01:14:42.048Z,2.53
2019-02-15T01:15:41.894Z,2.56
2019-02-15T01:16:41.859Z,2.51
2019-02-15T01:17:41.884Z,2.49
2019-02-15T01:18:41.793Z,2.51
2019-02-15T01:19:42.616Z,2.53
2019-02-15T01:20:41.800Z,2.57
2019-02-15T01:21:41.804Z,2.67
2019-02-15T01:22:41.802Z,2.61
2019-02-15T01:23:41.744Z,2.61
2019-02-15T01:24:41.773Z,2.68
2019-02-15T01:25:41.737Z,2.69
2019-02-15T01:26:41.778Z,2.67
2019-02-15T01:27:50.232Z,2.68
2019-02-15T01:28:49.487Z,2.61
2019-02-15T01:29:50.167Z,2.60
2019-02-15T01:30:50.368Z,2.53
2019-02-15T01:31:56.188Z,2.56
2019-02-15T01:32:50.357Z,2.57
2019-02-15T01:33:52.070Z,2.65
2019-02-15T01:34:41.998Z,2.60
2019-02-15T01:35:41.743Z,2.53
2019-02-15T01:36:43.336Z,2.50
2019-02-15T01:37:41.696Z,2.53
2019-02-15T01:38:41.615Z,2.51
2019-02-15T01:39:41.617Z,2.43
2019-02-15T01:40:41.585Z,2.50
2019-02-15T01:41:41.551Z,2.46
2019-02-15T01:42:41.577Z,2.47
2019-02-15T01:43:41.546Z,2.39
2019-02-15T01:44:41.551Z,2.49
2019-02-15T01:45:41.548Z,2.33
2019-02-15T01:46:41.523Z,2.38
2019-02-15T01:47:41.535Z,2.36
2019-02-15T01:48:41.486Z,2.43
2019-02-15T01:49:41.482Z,2.43
2019-02-15T01:50:41.482Z,2.38
2019-02-15T01:51:48.672Z,2.46
2019-02-15T01:52:41.806Z,2.31
2019-02-15T01:53:41.511Z,2.32
2019-02-15T01:54:41.469Z,2.29
2019-02-15T01:55:44.326Z,2.28
2019-02-15T01:56:41.420Z,2.25
2019-02-15T01:57:41.423Z,2.28
2019-02-15T01:58:41.401Z,2.32
2019-02-15T01:59:41.417Z,2.31
2019-02-15T02:00:41.354Z,2.29
2019-02-15T02:01:41.364Z,2.22
2019-02-15T02:02:41.855Z,2.26
2019-02-15T02:03:41.360Z,2.32
2019-02-15T02:04:41.349Z,2.14
2019-02-15T02:05:41.305Z,2.25
2019-02-15T02:06:41.297Z,2.29
2019-02-15T02:07:41.326Z,2.29
2019-02-15T02:08:41.301Z,2.33
2019-02-15T02:09:41.299Z,2.28
2019-02-15T02:10:41.285Z,2.22
2019-02-15T02:11:41.274Z,2.22
2019-02-15T02:12:41.364Z,2.25
2019-02-15T02:13:49.361Z,2.31
2019-02-15T02:14:42.218Z,2.31
2019-02-15T02:15:41.220Z,2.31
2019-02-15T02:16:41.217Z,2.31
2019-02-15T02:17:41.235Z,2.24
2019-02-15T02:18:41.167Z,2.24
2019-02-15T02:19:41.200Z,2.25
2019-02-15T02:20:41.170Z,2.24
2019-02-15T02:21:41.149Z,2.25
2019-02-15T02:22:41.208Z,2.25
2019-02-15T02:23:41.127Z,2.20
2019-02-15T02:24:41.125Z,2.29
2019-02-15T02:25:41.125Z,2.26
2019-02-15T02:26:41.138Z,2.22
2019-02-15T02:27:41.098Z,2.08
2019-02-15T02:28:41.114Z,2.11
2019-02-15T02:29:41.106Z,2.18
2019-02-15T02:30:41.054Z,2.07
2019-02-15T02:31:41.082Z,2.14
2019-02-15T02:32:41.059Z,2.10
2019-02-15T02:33:41.047Z,2.10
2019-02-15T02:34:41.034Z,1.99
2019-02-15T02:35:41.001Z,1.97
2019-02-15T02:36:41.018Z,1.88
2019-02-15T02:37:41.012Z,1.95
2019-02-15T02:38:41.006Z,1.94
2019-02-15T02:39:40.967Z,2.02
2019-02-15T02:40:40.969Z,2.13
2019-02-15T02:41:40.949Z,2.31
2019-02-15T02:42:40.954Z,2.22
2019-02-15T02:43:40.936Z,2.17
2019-02-15T02:44:40.927Z,2.18
2019-02-15T02:45:40.909Z,2.13
2019-02-15T02:46:40.886Z,2.07
2019-02-15T02:47:40.880Z,2.18
2019-02-15T02:48:40.896Z,2.15
2019-02-15T02:49:40.875Z,2.26
2019-02-15T02:50:40.847Z,2.11
2019-02-15T02:51:40.852Z,2.25
2019-02-15T02:52:40.818Z,2.15
2019-02-15T02:53:40.860Z,2.24
2019-02-15T02:54:41.329Z,2.15
2019-02-15T02:55:40.840Z,2.13
2019-02-15T02:56:40.778Z,2.08
2019-02-15T02:57:40.798Z,2.07
2019-02-15T02:58:40.799Z,2.07
2019-02-15T02:59:40.759Z,2.14
2019-02-15T03:00:42.392Z,2.08
2019-02-15T03:01:40.746Z,2.10
2019-02-15T03:02:40.747Z,2.08
2019-02-15T03:03:40.730Z,2.14
2019-02-15T03:04:40.693Z,2.11
2019-02-15T03:05:40.685Z,2.11
2019-02-15T03:06:41.374Z,2.17
2019-02-15T03:07:40.698Z,2.17
2019-02-15T03:08:40.926Z,2.02
2019-02-15T03:09:40.630Z,2.08
2019-02-15T03:10:40.634Z,2.14
2019-02-15T03:11:40.684Z,2.14
2019-02-15T03:12:41.346Z,2.11
2019-02-15T03:13:42.406Z,2.15
2019-02-15T03:14:40.603Z,2.13
2019-02-15T03:15:40.643Z,2.13
2019-02-15T03:16:40.595Z,2.18
2019-02-15T03:17:40.579Z,2.18
2019-02-15T03:18:40.598Z,2.18
2019-02-15T03:19:40.567Z,2.14
2019-02-15T03:20:40.544Z,2.15
2019-02-15T03:21:40.537Z,2.17
2019-02-15T03:22:40.550Z,2.11
2019-02-15T03:23:40.552Z,2.15
2019-02-15T03:24:40.515Z,2.17
2019-02-15T03:25:40.537Z,2.10
2019-02-15T03:26:40.535Z,2.07
2019-02-15T03:27:40.467Z,2.04
2019-02-15T03:28:49.200Z,2.00
2019-02-15T03:29:40.653Z,2.04
2019-02-15T03:30:41.491Z,1.94
2019-02-15T03:31:40.467Z,1.87
2019-02-15T03:32:40.430Z,1.88
2019-02-15T03:33:40.482Z,1.91
2019-02-15T03:34:41.439Z,1.95
2019-02-15T03:35:40.395Z,2.06
2019-02-15T03:36:41.362Z,2.04
2019-02-15T03:37:40.412Z,1.97
2019-02-15T03:38:40.411Z,2.07
2019-02-15T03:39:40.403Z,2.00
2019-02-15T03:40:40.321Z,2.04
2019-02-15T03:41:40.332Z,1.89
2019-02-15T03:42:40.328Z,1.88
2019-02-15T03:43:40.379Z,1.85
2019-02-15T03:44:40.328Z,1.77
2019-02-15T03:45:40.337Z,1.84
2019-02-15T03:46:40.336Z,1.68
2019-02-15T03:47:48.438Z,1.63
2019-02-15T03:48:48.738Z,1.66
2019-02-15T03:49:40.364Z,1.53
2019-02-15T03:50:40.306Z,1.53
2019-02-15T03:51:40.272Z,1.45
2019-02-15T03:52:40.198Z,1.45
2019-02-15T03:53:40.198Z,1.41
2019-02-15T03:54:40.217Z,1.34
2019-02-15T03:55:40.167Z,1.42
2019-02-15T03:56:40.161Z,1.49
2019-02-15T03:57:40.156Z,1.45
2019-02-15T03:58:40.158Z,1.49
2019-02-15T03:59:40.166Z,1.52
2019-02-15T04:00:40.195Z,1.38
2019-02-15T04:01:40.145Z,1.26
2019-02-15T04:02:40.924Z,1.26
2019-02-15T04:03:40.166Z,1.17
2019-02-15T04:04:40.082Z,1.23
2019-02-15T04:05:40.080Z,1.12
2019-02-15T04:06:40.932Z,1.04
2019-02-15T04:07:40.903Z,0.91
2019-02-15T04:08:40.128Z,0.99
2019-02-15T04:09:40.105Z,0.99
2019-02-15T04:10:40.064Z,1.14
2019-02-15T04:11:40.110Z,1.16
2019-02-15T04:12:40.029Z,1.17
2019-02-15T04:13:40.041Z,1.14
2019-02-15T04:14:39.950Z,1.26
2019-02-15T04:15:39.950Z,1.19
2019-02-15T04:16:39.935Z,1.31
2019-02-15T04:17:39.974Z,1.35
2019-02-15T04:18:39.963Z,1.52
2019-02-15T04:19:39.932Z,1.52
2019-02-15T04:20:39.911Z,1.58
2019-02-15T04:21:48.107Z,1.44
2019-02-15T04:22:47.117Z,1.49
2019-02-15T04:23:48.006Z,1.45
2019-02-15T04:24:47.538Z,1.42
2019-02-15T04:25:40.047Z,1.42
2019-02-15T04:26:39.960Z,1.44
2019-02-15T04:27:39.961Z,1.35
2019-02-15T04:28:39.875Z,1.49
2019-02-15T04:29:40.500Z,1.45
2019-02-15T04:30:39.835Z,1.49
2019-02-15T04:31:39.832Z,1.55
2019-02-15T04:32:39.797Z,1.53
2019-02-15T04:33:39.767Z,1.44
2019-02-15T04:34:39.796Z,1.44
2019-02-15T04:35:39.756Z,1.45
2019-02-15T04:36:39.756Z,1.31
2019-02-15T04:37:39.742Z,1.22
2019-02-15T04:38:39.748Z,1.17
2019-02-15T04:39:39.745Z,1.06
2019-02-15T04:40:39.688Z,1.22
2019-02-15T04:41:48.490Z,1.10
2019-02-15T04:42:48.419Z,1.05
2019-02-15T04:43:48.398Z,1.12
2019-02-15T04:44:42.877Z,1.12
2019-02-15T04:45:48.289Z,1.10
2019-02-15T04:46:49.948Z,1.17
2019-02-15T04:47:50.246Z,1.26
2019-02-15T04:48:47.733Z,1.22
2019-02-15T04:49:39.774Z,1.28
2019-02-15T04:50:48.454Z,1.28
2019-02-15T04:51:46.790Z,1.14
2019-02-15T04:52:39.645Z,1.20
2019-02-15T04:53:49.355Z,1.10
2019-02-15T04:57:02.177Z,0.91
2019-02-15T04:58:09.466Z,0.88
2019-02-15T04:59:10.125Z,0.86
2019-02-15T05:00:10.402Z,0.94
2019-02-15T05:01:10.567Z,0.99
2019-02-15T05:02:01.983Z,1.05
2019-02-15T05:03:02.169Z,1.19
2019-02-15T05:04:01.828Z,1.14
2019-02-15T05:05:10.871Z,1.08
2019-02-15T05:06:01.754Z,1.14
2019-02-15T05:07:01.771Z,1.23
2019-02-15T05:08:01.748Z,1.13
2019-02-15T05:09:01.740Z,1.12
2019-02-15T05:10:09.908Z,1.17
2019-02-15T05:11:01.794Z,1.17
2019-02-15T05:12:01.728Z,1.10
2019-02-15T05:13:01.680Z,1.13
2019-02-15T05:14:01.759Z,1.17
2019-02-15T05:15:01.643Z,1.10
2019-02-15T05:16:01.642Z,1.12
2019-02-15T05:17:01.640Z,1.22
2019-02-15T05:18:01.592Z,1.17
2019-02-15T05:19:01.568Z,1.13
2019-02-15T05:20:01.630Z,1.16
2019-02-15T05:21:02.286Z,1.23
2019-02-15T05:22:01.583Z,1.24
2019-02-15T05:23:01.546Z,1.22
2019-02-15T05:24:01.542Z,1.23
2019-02-15T05:25:01.539Z,1.22
2019-02-15T05:26:01.504Z,1.26
2019-02-15T05:27:01.510Z,1.23
2019-02-15T05:28:01.512Z,1.23
2019-02-15T05:29:01.486Z,1.20
2019-02-15T05:30:01.501Z,1.10
2019-02-15T05:31:01.461Z,1.20
2019-02-15T05:32:01.434Z,1.05
2019-02-15T05:33:02.289Z,1.04
2019-02-15T05:34:01.425Z,0.98
2019-02-15T05:35:01.436Z,0.98
2019-02-15T05:36:01.406Z,0.96
2019-02-15T05:37:01.377Z,0.96
2019-02-15T05:38:01.374Z,0.94
2019-02-15T05:39:01.381Z,1.02
2019-02-15T05:40:02.099Z,1.02
2019-02-15T05:41:02.324Z,1.08
2019-02-15T05:42:02.359Z,1.12
2019-02-15T05:43:01.311Z,1.13
2019-02-15T05:44:01.310Z,1.14
2019-02-15T05:45:03.873Z,1.12
2019-02-15T05:46:01.319Z,1.17
2019-02-15T05:47:01.279Z,1.14
2019-02-15T05:48:01.339Z,1.17
2019-02-15T05:49:01.343Z,1.16
2019-02-15T05:50:01.383Z,1.17
2019-02-15T05:51:09.723Z,1.05
2019-02-15T05:52:09.934Z,1.17
2019-02-15T05:53:01.346Z,1.14
2019-02-15T05:54:01.364Z,1.05
2019-02-15T05:55:01.325Z,1.02
2019-02-15T05:56:01.194Z,0.99
2019-02-15T05:57:01.175Z,0.95
2019-02-15T05:58:01.160Z,0.99
2019-02-15T05:59:01.176Z,1.04
2019-02-15T06:00:01.208Z,1.10
2019-02-15T06:01:01.173Z,1.13
2019-02-15T06:02:01.140Z,1.16
2019-02-15T06:03:01.135Z,1.26
2019-02-15T06:04:01.131Z,1.31
2019-02-15T06:05:01.132Z,1.28
2019-02-15T06:06:02.088Z,1.35
2019-02-15T06:07:01.086Z,1.26
2019-02-15T06:08:01.061Z,1.37
2019-02-15T06:09:01.135Z,1.44
2019-02-15T06:10:01.135Z,1.40
2019-02-15T06:11:07.290Z,1.34
2019-02-15T06:12:02.041Z,1.48
2019-02-15T06:13:01.011Z,1.48
2019-02-15T06:14:00.993Z,1.44
2019-02-15T06:15:01.007Z,1.49
2019-02-15T06:16:01.027Z,1.35
2019-02-15T06:17:01.863Z,1.45
2019-02-15T06:18:00.985Z,1.45
2019-02-15T06:19:00.968Z,1.48
2019-02-15T06:20:00.993Z,1.42
2019-02-15T06:21:00.935Z,1.40
2019-02-15T06:22:00.965Z,1.34
2019-02-15T06:23:00.977Z,1.32
2019-02-15T06:24:00.923Z,1.28
2019-02-15T06:25:01.424Z,1.31
2019-02-15T06:26:01.900Z,1.34
2019-02-15T06:27:00.898Z,1.35
2019-02-15T06:28:00.861Z,1.41
2019-02-15T06:29:09.016Z,1.34
2019-02-15T06:30:01.033Z,1.42
2019-02-15T06:31:00.886Z,1.44
2019-02-15T06:32:01.434Z,1.53
2019-02-15T06:33:01.032Z,1.56
2019-02-15T06:34:00.829Z,1.59
2019-02-15T06:35:00.805Z,1.63
2019-02-15T06:36:00.773Z,1.73
2019-02-15T06:37:00.762Z,1.70
2019-02-15T06:38:00.772Z,1.70
2019-02-15T06:39:00.783Z,1.73
2019-02-15T06:40:00.817Z,1.81
2019-02-15T06:41:00.735Z,1.87
2019-02-15T06:42:00.708Z,1.89
2019-02-15T06:43:00.700Z,1.92
2019-02-15T06:44:00.695Z,2.04
2019-02-15T06:45:01.396Z,2.07
2019-02-15T06:46:08.157Z,1.94
2019-02-15T06:47:00.776Z,2.00
2019-02-15T06:48:00.720Z,2.04
2019-02-15T06:49:00.684Z,2.18
2019-02-15T06:50:00.689Z,2.07
2019-02-15T06:51:00.629Z,2.08
2019-02-15T06:52:00.617Z,2.08
2019-02-15T06:53:00.593Z,2.14
2019-02-15T06:54:00.617Z,2.13
2019-02-15T06:55:00.611Z,2.20
2019-02-15T06:56:00.580Z,2.25
2019-02-15T06:57:00.623Z,2.18
2019-02-15T06:58:00.556Z,2.26
2019-02-15T06:59:00.548Z,2.28
2019-02-15T07:00:00.543Z,2.08
2019-02-15T07:01:00.514Z,2.11
2019-02-15T07:02:00.502Z,2.15
2019-02-15T07:03:00.530Z,2.18
2019-02-15T07:04:00.515Z,2.26
2019-02-15T07:05:00.541Z,2.25
2019-02-15T07:06:00.534Z,2.25
2019-02-15T07:07:02.490Z,2.32
2019-02-15T07:08:00.464Z,2.42
2019-02-15T07:09:00.444Z,2.39
2019-02-15T07:10:00.479Z,2.50
2019-02-15T07:11:00.494Z,2.53
2019-02-15T07:12:00.403Z,2.47
2019-02-15T07:13:00.396Z,2.56
2019-02-15T07:14:07.713Z,2.50
2019-02-15T07:15:07.757Z,2.54
2019-02-15T07:16:08.120Z,2.53
2019-02-15T07:17:07.460Z,2.62
2019-02-15T07:18:00.620Z,2.54
2019-02-15T07:19:00.405Z,2.64
2019-02-15T07:20:00.409Z,2.74
2019-02-15T07:21:00.522Z,2.75
2019-02-15T07:22:00.327Z,2.92
2019-02-15T07:23:00.272Z,3.04
2019-02-15T07:24:00.263Z,4.13
2019-02-15T07:25:00.322Z,5.71
2019-02-15T07:26:00.275Z,7.07
2019-02-15T07:27:00.280Z,8.08
2019-02-15T07:28:00.231Z,8.94
2019-02-15T07:29:00.233Z,9.41
2019-02-15T07:30:00.348Z,9.94
2019-02-15T07:31:00.511Z,10.12
2019-02-15T07:32:00.194Z,10.59
2019-02-15T07:33:00.178Z,10.92
2019-02-15T07:34:00.213Z,11.25
2019-02-15T07:35:00.355Z,11.70
2019-02-15T07:36:00.155Z,12.12
2019-02-15T07:37:00.165Z,12.54
2019-02-15T07:38:00.147Z,13.05
2019-02-15T07:39:00.142Z,13.54
2019-02-15T07:40:00.118Z,14.04
2019-02-15T07:41:00.130Z,14.14
2019-02-15T07:42:00.090Z,14.23
2019-02-15T07:43:00.093Z,13.89
2019-02-15T07:44:00.093Z,13.96
2019-02-15T07:45:00.155Z,14.37
2019-02-15T07:46:00.100Z,14.72
2019-02-15T07:47:00.022Z,14.77
2019-02-15T07:48:00.025Z,14.43
2019-02-15T07:49:00.079Z,13.96
2019-02-15T07:50:00.040Z,13.85
2019-02-15T07:51:09.115Z,13.86
2019-02-15T07:52:00.990Z,13.75
2019-02-15T07:52:59.991Z,14.17
2019-02-15T07:53:59.988Z,14.47
2019-02-15T07:54:59.961Z,14.58
2019-02-15T07:57:17.694Z,15.54
2019-02-15T07:58:18.419Z,15.40
2019-02-15T07:59:17.547Z,15.65
2019-02-15T08:00:17.495Z,15.67
2019-02-15T08:01:24.789Z,15.47
2019-02-15T08:02:17.701Z,15.67
2019-02-15T08:03:17.510Z,15.31
2019-02-15T08:04:17.481Z,15.54
2019-02-15T08:05:17.445Z,16.04
2019-02-15T08:06:17.419Z,16.75
2019-02-15T08:07:17.402Z,17.42
2019-02-15T08:08:17.373Z,17.82
2019-02-15T08:09:17.368Z,18.31
2019-02-15T08:10:17.362Z,18.40
2019-02-15T08:11:17.366Z,18.74
2019-02-15T08:12:17.338Z,18.55
2019-02-15T08:13:17.346Z,18.77
2019-02-15T08:14:17.756Z,18.99
2019-02-15T08:15:17.583Z,18.68
2019-02-15T08:16:17.306Z,18.53
2019-02-15T08:17:17.311Z,18.35
2019-02-15T08:18:17.287Z,18.37
2019-02-15T08:19:17.255Z,18.58
2019-02-15T08:20:17.264Z,18.88
2019-02-15T08:21:17.247Z,19.18
2019-02-15T08:22:17.870Z,19.40
2019-02-15T08:23:17.227Z,19.67
2019-02-15T08:24:17.239Z,19.89
2019-02-15T08:25:17.193Z,20.28
2019-02-15T08:26:17.206Z,20.52
2019-02-15T08:27:17.162Z,20.74
2019-02-15T08:28:17.198Z,20.07
2019-02-15T08:29:17.166Z,20.19
2019-02-15T08:30:17.250Z,20.55
2019-02-15T08:31:17.152Z,20.77
2019-02-15T08:32:17.117Z,20.95
2019-02-15T08:33:17.105Z,21.21
2019-02-15T08:34:17.104Z,21.30
2019-02-15T08:35:17.893Z,21.22
2019-02-15T08:36:27.359Z,21.15
2019-02-15T08:37:25.099Z,21.62
2019-02-15T08:38:25.129Z,21.95
2019-02-15T08:39:24.823Z,22.18
2019-02-15T08:40:24.830Z,22.07
2019-02-15T08:41:25.219Z,22.06
2019-02-15T08:42:17.174Z,21.88
2019-02-15T08:43:17.143Z,22.10
2019-02-15T08:44:17.042Z,21.75
2019-02-15T08:45:24.688Z,21.91
2019-02-15T08:46:24.316Z,22.07
2019-02-15T08:47:24.221Z,22.36
2019-02-15T08:48:17.145Z,22.60
2019-02-15T08:49:24.347Z,22.80
2019-02-15T08:50:25.376Z,22.90
2019-02-15T08:51:25.796Z,22.91
2019-02-15T08:52:25.295Z,22.84
2019-02-15T08:53:17.160Z,23.05
2019-02-15T08:54:17.018Z,22.98
2019-02-15T08:55:16.933Z,23.00
2019-02-15T08:56:17.442Z,22.63
2019-02-15T08:58:35.432Z,23.08
2019-02-15T08:59:35.410Z,23.12
2019-02-15T09:00:35.252Z,23.06
2019-02-15T09:01:35.104Z,22.85
2019-02-15T09:02:35.432Z,22.73
2019-02-15T09:03:35.024Z,22.36
2019-02-15T09:04:35.021Z,22.06
2019-02-15T09:05:34.975Z,21.99
2019-02-15T09:06:35.006Z,22.13
2019-02-15T09:07:34.959Z,21.88
2019-02-15T09:08:35.766Z,21.80
2019-02-15T09:09:35.003Z,22.11
2019-02-15T09:10:34.928Z,22.17
2019-02-15T09:11:34.952Z,22.06
2019-02-15T09:12:34.917Z,22.10
2019-02-15T09:13:34.909Z,22.30
2019-02-15T09:14:34.910Z,22.17
2019-02-15T09:15:34.884Z,22.18
2019-02-15T09:16:34.898Z,21.43
2019-02-15T09:17:34.863Z,21.73
2019-02-15T09:18:34.844Z,21.85
2019-02-15T09:19:34.818Z,22.13
2019-02-15T09:20:34.820Z,22.10
2019-02-15T09:21:34.823Z,21.95
2019-02-15T09:22:34.803Z,20.63
2019-02-15T09:23:34.811Z,20.60
2019-02-15T09:24:35.271Z,20.55
2019-02-15T09:25:34.760Z,20.70
2019-02-15T09:26:34.759Z,20.92
2019-02-15T09:27:34.763Z,20.99
2019-02-15T09:28:34.736Z,21.06
2019-02-15T09:29:34.745Z,21.24
2019-02-15T09:30:34.724Z,21.55
2019-02-15T09:31:34.887Z,21.92
2019-02-15T09:32:34.685Z,21.46
2019-02-15T09:33:34.676Z,21.62
2019-02-15T09:34:34.670Z,22.04
2019-02-15T09:35:35.349Z,22.68
2019-02-15T09:36:34.704Z,22.91
2019-02-15T09:37:43.420Z,23.12
2019-02-15T09:38:34.753Z,23.18
2019-02-15T09:39:34.772Z,23.05
2019-02-15T09:40:34.660Z,21.72
2019-02-15T09:41:34.645Z,21.67
2019-02-15T09:42:34.562Z,21.29
2019-02-15T09:43:35.315Z,20.06
2019-02-15T09:44:34.568Z,19.85
2019-02-15T09:45:34.565Z,20.24
2019-02-15T09:46:34.582Z,19.99
2019-02-15T09:47:34.550Z,20.43
2019-02-15T09:48:34.525Z,20.51
2019-02-15T09:49:35.311Z,20.88
2019-02-15T09:50:34.476Z,20.66
2019-02-15T09:51:34.513Z,20.58
2019-02-15T09:52:34.518Z,20.13
2019-02-15T09:53:34.456Z,19.14
2019-02-15T09:54:34.479Z,19.21
2019-02-15T09:55:34.439Z,18.66
2019-02-15T09:56:34.833Z,18.73
2019-02-15T09:57:35.419Z,18.38
2019-02-15T09:58:41.811Z,18.52
2019-02-15T09:59:42.424Z,18.20
2019-02-15T10:00:34.440Z,17.97
2019-02-15T10:01:34.448Z,17.85
2019-02-15T10:02:34.823Z,17.87
2019-02-15T10:03:44.696Z,17.85
2019-02-15T10:04:43.103Z,17.97
2019-02-15T10:05:42.359Z,18.01
2019-02-15T10:06:43.408Z,18.15
2019-02-15T10:07:44.413Z,18.58
2019-02-15T10:08:34.605Z,18.83
2019-02-15T10:09:42.591Z,19.11
2019-02-15T10:10:41.646Z,18.83
2019-02-15T10:11:41.749Z,18.83
2019-02-15T10:12:42.866Z,19.09
2019-02-15T10:13:43.530Z,18.92
2019-02-15T10:14:34.664Z,18.18
2019-02-15T10:15:34.334Z,18.25
2019-02-15T10:16:34.322Z,18.35
2019-02-15T10:17:34.310Z,18.50
2019-02-15T10:18:34.228Z,18.70
2019-02-15T10:19:34.186Z,19.02
2019-02-15T10:20:34.205Z,18.98
2019-02-15T10:21:34.272Z,19.12
2019-02-15T10:22:34.201Z,19.36
2019-02-15T10:23:34.191Z,19.81
2019-02-15T10:24:35.122Z,19.96
2019-02-15T10:25:34.134Z,20.41
2019-02-15T10:26:34.170Z,20.72
2019-02-15T10:27:34.270Z,20.69
2019-02-15T10:28:34.159Z,20.99
2019-02-15T10:29:34.105Z,21.43
2019-02-15T10:30:34.091Z,21.54
2019-02-15T10:31:34.149Z,21.55
2019-02-15T10:32:34.117Z,21.77
2019-02-15T10:33:34.042Z,21.52
2019-02-15T10:34:34.052Z,21.00
2019-02-15T10:35:34.059Z,20.78
2019-02-15T10:36:41.564Z,20.65
2019-02-15T10:37:34.327Z,20.58
2019-02-15T10:38:34.100Z,19.91
2019-02-15T10:39:34.078Z,19.70
2019-02-15T10:40:33.989Z,19.71
2019-02-15T10:41:34.029Z,19.49
2019-02-15T10:42:34.112Z,19.52
2019-02-15T10:43:33.982Z,20.06
2019-02-15T10:44:33.923Z,20.56
2019-02-15T10:45:33.938Z,20.02
2019-02-15T10:46:37.801Z,19.19
2019-02-15T10:47:33.948Z,18.58
2019-02-15T10:48:33.892Z,18.96
2019-02-15T10:49:33.953Z,19.45
2019-02-15T10:50:33.878Z,20.44
2019-02-15T10:51:33.881Z,21.11
2019-02-15T10:52:33.875Z,21.75
2019-02-15T10:53:33.870Z,22.06
2019-02-15T10:54:33.845Z,22.29
2019-02-15T10:55:34.646Z,22.57
2019-02-15T10:56:33.831Z,22.83
2019-02-15T10:57:33.873Z,23.25
2019-02-15T10:58:33.816Z,23.84
2019-02-15T10:59:33.777Z,24.33
2019-02-15T11:00:33.757Z,24.39
2019-02-15T11:01:33.797Z,24.18
2019-02-15T11:02:33.791Z,24.14
2019-02-15T11:03:33.749Z,23.34
2019-02-15T11:04:33.710Z,23.34
2019-02-15T11:05:33.754Z,23.23
2019-02-15T11:06:33.694Z,23.13
2019-02-15T11:07:33.734Z,22.39
2019-02-15T11:08:34.697Z,22.59
2019-02-15T11:09:33.686Z,22.53
2019-02-15T11:10:33.675Z,22.57
2019-02-15T11:11:33.699Z,22.23
2019-02-15T11:12:33.691Z,22.10
2019-02-15T11:13:33.672Z,22.14
2019-02-15T11:14:33.613Z,22.29
2019-02-15T11:15:33.655Z,22.38
2019-02-15T11:16:33.720Z,21.98
2019-02-15T11:17:33.692Z,21.70
2019-02-15T11:18:33.597Z,21.66
2019-02-15T11:19:33.573Z,21.99
2019-02-15T11:20:33.581Z,22.20
2019-02-15T11:21:33.547Z,22.25
2019-02-15T11:22:35.010Z,22.80
2019-02-15T11:23:33.499Z,23.28
2019-02-15T11:24:33.540Z,23.21
2019-02-15T11:25:33.461Z,23.48
2019-02-15T11:26:33.488Z,23.54
2019-02-15T11:27:33.570Z,23.95
2019-02-15T11:28:34.170Z,24.36
2019-02-15T11:29:33.464Z,24.26
2019-02-15T11:30:33.433Z,24.38
2019-02-15T11:31:33.439Z,24.32
2019-02-15T11:32:33.486Z,24.24
2019-02-15T11:33:33.465Z,24.45
2019-02-15T11:34:33.394Z,24.48
2019-02-15T11:35:33.391Z,24.45
2019-02-15T11:36:33.373Z,24.43
2019-02-15T11:37:33.372Z,24.65
2019-02-15T11:38:33.361Z,24.84
2019-02-15T11:39:33.315Z,24.99
2019-02-15T11:40:33.324Z,25.22
2019-02-15T11:41:33.318Z,25.23
2019-02-15T11:42:33.315Z,25.62
2019-02-15T11:43:33.292Z,26.07
2019-02-15T11:44:33.320Z,26.31
2019-02-15T11:45:33.285Z,26.25
2019-02-15T11:46:33.260Z,26.55
2019-02-15T11:47:33.286Z,26.90
2019-02-15T11:48:33.268Z,27.11
2019-02-15T11:49:33.219Z,27.20
2019-02-15T11:50:33.204Z,27.52
2019-02-15T11:51:33.198Z,27.77
2019-02-15T11:52:33.205Z,28.04
2019-02-15T11:53:33.200Z,28.44
2019-02-15T11:54:34.152Z,28.75
2019-02-15T11:55:33.192Z,28.72
2019-02-15T11:56:33.212Z,28.93
2019-02-15T11:57:34.691Z,29.05
2019-02-15T11:58:33.132Z,28.93
2019-02-15T11:59:33.129Z,29.02
2019-02-15T12:00:33.127Z,29.31
2019-02-15T12:01:33.098Z,29.54
2019-02-15T12:02:33.104Z,30.24
2019-02-15T12:03:33.075Z,30.85
2019-02-15T12:04:33.667Z,31.10
2019-02-15T12:05:33.061Z,30.92
2019-02-15T12:06:33.076Z,30.81
2019-02-15T12:07:33.060Z,31.07
2019-02-15T12:08:33.039Z,31.52
2019-02-15T12:09:33.013Z,31.70
2019-02-15T12:10:33.078Z,31.70
2019-02-15T12:11:32.988Z,31.80
2019-02-15T12:12:32.985Z,31.99
2019-02-15T12:13:32.963Z,32.18
2019-02-15T12:14:32.959Z,32.64
2019-02-15T12:15:32.945Z,32.56
2019-02-15T12:16:32.925Z,32.38
2019-02-15T12:17:32.998Z,32.22
2019-02-15T12:18:32.933Z,31.66
2019-02-15T12:19:32.897Z,30.61
2019-02-15T12:20:32.880Z,29.38
2019-02-15T12:21:32.924Z,28.98
2019-02-15T12:22:32.881Z,26.80
2019-02-15T12:23:32.862Z,26.13
2019-02-15T12:24:32.862Z,26.38
2019-02-15T12:25:32.814Z,27.85
2019-02-15T12:26:32.816Z,29.14
2019-02-15T12:27:32.835Z,29.82
2019-02-15T12:28:32.818Z,29.68
2019-02-15T12:29:32.806Z,29.57
2019-02-15T12:30:40.368Z,29.38
2019-02-15T12:31:40.250Z,27.42
2019-02-15T12:32:40.057Z,25.72
2019-02-15T12:34:55.777Z,25.10
2019-02-15T12:36:03.683Z,24.78
2019-02-15T12:36:55.804Z,24.14
2019-02-15T12:38:03.646Z,24.63
2019-02-15T12:40:08.944Z,25.69
2019-02-15T12:41:20.928Z,26.77
2019-02-15T12:43:19.828Z,28.05
2019-02-15T12:44:35.076Z,28.17
2019-02-15T12:45:19.473Z,28.54
2019-02-15T12:46:19.245Z,29.01
2019-02-15T12:47:19.283Z,29.73
2019-02-15T12:48:19.980Z,30.50
2019-02-15T12:49:19.348Z,29.82
2019-02-15T12:50:19.173Z,27.07
2019-02-15T12:51:19.158Z,25.07
2019-02-15T12:52:19.143Z,25.23
2019-02-15T12:53:19.180Z,25.11
2019-02-15T12:54:19.666Z,25.06
2019-02-15T12:55:19.192Z,25.36
2019-02-15T12:59:22.792Z,26.31
2019-02-15T13:00:33.727Z,26.93
2019-02-15T13:01:30.493Z,27.45
2019-02-15T13:02:29.787Z,27.59
2019-02-15T13:03:22.200Z,27.86
2019-02-15T13:04:22.269Z,28.59
2019-02-15T13:05:22.114Z,29.14
2019-02-15T13:06:28.435Z,29.60
2019-02-15T13:09:24.612Z,30.47
2019-02-15T13:10:23.992Z,30.28
2019-02-15T13:11:24.134Z,29.65
2019-02-15T13:12:31.963Z,29.61
2019-02-15T13:13:24.223Z,29.81
2019-02-15T13:14:23.927Z,28.22
2019-02-15T13:15:23.985Z,27.15
2019-02-15T13:17:48.090Z,25.91
2019-02-15T13:20:14.765Z,25.66
2019-02-15T13:21:14.790Z,26.29
2019-02-15T13:22:15.213Z,27.02
2019-02-15T13:25:15.012Z,26.44
2019-02-15T14:01:17.008Z,27.15